createdAt,value
2023-03-26T00:02:29.850Z,6.80
2023-03-26T00:04:59.543Z,7.90
2023-03-26T00:07:28.801Z,7.50
2023-03-26T00:09:59.240Z,7.70
2023-03-26T00:12:31.403Z,9.00
2023-03-26T00:15:03.382Z,9.20
2023-03-26T00:17:32.135Z,7.90
2023-03-26T00:20:02.381Z,9.40
2023-03-26T00:22:31.024Z,7.50
2023-03-26T00:24:59.526Z,8.70
2023-03-26T00:27:30.317Z,11.50
2023-03-26T00:30:00.262Z,8.40
2023-03-26T00:32:34.722Z,8.20
2023-03-26T00:35:04.085Z,7.80
2023-03-26T00:37:34.068Z,8.20
2023-03-26T00:40:08.331Z,7.40
2023-03-26T00:42:40.138Z,10.20
2023-03-26T00:45:09.738Z,9.00
2023-03-26T00:47:40.434Z,9.30
2023-03-26T00:50:15.655Z,8.60
2023-03-26T00:52:45.237Z,10.70
2023-03-26T00:55:16.252Z,10.20
2023-03-26T00:57:46.660Z,8.90
2023-03-26T01:00:15.647Z,9.00
2023-03-26T01:02:47.318Z,10.20
2023-03-26T01:05:35.378Z,10.30
2023-03-26T01:08:29.333Z,9.90
2023-03-26T01:11:07.775Z,8.70
2023-03-26T01:13:38.313Z,8.70
2023-03-26T01:16:10.066Z,7.80
2023-03-26T01:18:41.268Z,6.90
2023-03-26T01:21:14.021Z,7.70
2023-03-26T01:23:47.083Z,5.70
2023-03-26T01:26:46.269Z,5.30
2023-03-26T01:29:43.810Z,4.70
2023-03-26T01:32:55.815Z,3.90
2023-03-26T01:35:46.247Z,3.40
2023-03-26T01:38:46.964Z,3.30
2023-03-26T01:41:27.724Z,2.90
2023-03-26T01:44:15.244Z,2.30
2023-03-26T01:46:43.725Z,2.60
2023-03-26T01:49:13.756Z,1.80
2023-03-26T01:51:42.642Z,2.00
2023-03-26T01:54:19.656Z,1.40
2023-03-26T01:57:13.442Z,0.90
2023-03-26T02:00:11.863Z,1.10
2023-03-26T02:03:06.099Z,1.00
2023-03-26T02:05:38.039Z,0.60
2023-03-26T02:08:35.773Z,0.80
2023-03-26T02:11:11.916Z,0.70
2023-03-26T02:13:43.164Z,0.70
2023-03-26T02:16:16.776Z,0.50
2023-03-26T02:18:51.582Z,0.90
2023-03-26T02:21:21.568Z,0.40
2023-03-26T02:23:50.976Z,0.40
2023-03-26T02:26:19.745Z,1.00
2023-03-26T02:28:56.957Z,0.60
2023-03-26T02:31:31.011Z,0.40
2023-03-26T02:33:59.449Z,0.50
2023-03-26T02:36:29.957Z,0.30
2023-03-26T02:39:01.020Z,0.80
2023-03-26T02:41:31.869Z,1.00
2023-03-26T02:44:09.503Z,0.60
2023-03-26T02:46:57.136Z,0.60
2023-03-26T02:49:52.726Z,0.40
2023-03-26T02:52:26.066Z,0.60
2023-03-26T02:54:56.440Z,0.50
2023-03-26T02:57:26.603Z,1.30
2023-03-26T03:00:17.602Z,0.90
2023-03-26T03:02:50.476Z,0.70
2023-03-26T03:05:55.176Z,0.80
2023-03-26T03:08:41.771Z,0.60
2023-03-26T03:11:13.036Z,1.00
2023-03-26T03:13:51.196Z,0.60
2023-03-26T03:16:24.929Z,0.70
2023-03-26T03:18:57.807Z,0.60
2023-03-26T03:21:31.040Z,0.60
2023-03-26T03:24:00.301Z,0.50
2023-03-26T03:26:30.784Z,0.60
2023-03-26T03:29:03.563Z,0.60
2023-03-26T03:31:32.649Z,0.50
2023-03-26T03:34:04.416Z,0.60
2023-03-26T03:36:38.716Z,0.60
2023-03-26T03:39:19.773Z,0.80
2023-03-26T03:41:50.493Z,1.80
2023-03-26T03:44:19.330Z,0.70
2023-03-26T03:46:49.480Z,0.60
2023-03-26T03:49:19.961Z,1.20
2023-03-26T03:51:48.574Z,0.70
2023-03-26T03:54:30.996Z,0.40
2023-03-26T03:57:36.589Z,4.20
2023-03-26T04:00:12.020Z,0.70
2023-03-26T04:02:50.389Z,1.00
2023-03-26T04:05:19.114Z,2.70
2023-03-26T04:07:50.847Z,4.90
2023-03-26T04:13:24.094Z,3.00
2023-03-26T04:16:15.173Z,3.20
2023-03-26T04:18:45.480Z,2.70
2023-03-26T04:21:17.137Z,1.30
2023-03-26T04:23:45.912Z,2.70
2023-03-26T04:26:31.135Z,1.00
2023-03-26T04:29:06.517Z,3.50
2023-03-26T04:31:40.119Z,0.90
2023-03-26T04:34:14.401Z,1.70
2023-03-26T04:36:54.733Z,1.80
2023-03-26T04:39:29.381Z,1.70
2023-03-26T04:42:21.320Z,3.00
2023-03-26T04:45:05.962Z,4.60
2023-03-26T04:47:37.270Z,2.50
2023-03-26T04:50:08.348Z,2.80
2023-03-26T04:52:37.810Z,4.40
2023-03-26T04:55:30.252Z,3.50
2023-03-26T04:58:05.659Z,2.80
2023-03-26T05:00:50.348Z,4.80
2023-03-26T05:03:21.305Z,2.70
2023-03-26T05:05:50.402Z,1.80
2023-03-26T05:08:18.800Z,4.40
2023-03-26T05:10:48.036Z,2.40
2023-03-26T05:13:24.793Z,1.60
2023-03-26T05:15:55.910Z,2.20
2023-03-26T05:18:35.924Z,1.20
2023-03-26T05:21:05.034Z,1.30
2023-03-26T05:23:41.304Z,0.60
2023-03-26T05:28:47.012Z,1.10
2023-03-26T05:33:55.467Z,1.40
2023-03-26T05:36:28.675Z,0.80
2023-03-26T05:39:11.632Z,1.00
2023-03-26T05:42:08.049Z,1.30
2023-03-26T05:44:59.871Z,1.70
2023-03-26T05:47:29.700Z,1.30
2023-03-26T05:49:58.299Z,1.60
2023-03-26T05:52:28.019Z,1.80
2023-03-26T05:55:18.771Z,2.10
2023-03-26T05:58:06.922Z,1.40
2023-03-26T06:01:06.018Z,1.00
2023-03-26T06:03:47.367Z,1.20
2023-03-26T06:06:20.816Z,1.20
2023-03-26T06:09:02.030Z,1.40
2023-03-26T06:11:32.239Z,4.00
2023-03-26T06:16:40.770Z,1.60
2023-03-26T06:19:29.869Z,1.90
2023-03-26T06:22:10.939Z,0.70
2023-03-26T06:24:59.824Z,1.00
2023-03-26T06:27:49.663Z,1.20
2023-03-26T06:30:59.582Z,0.90
2023-03-26T06:33:38.432Z,0.80
2023-03-26T06:36:07.579Z,0.70
2023-03-26T06:38:37.286Z,0.60
2023-03-26T06:41:08.470Z,0.80
2023-03-26T06:44:16.424Z,0.90
2023-03-26T06:47:20.642Z,0.80
2023-03-26T06:52:56.030Z,1.40
2023-03-26T06:55:43.185Z,1.10
2023-03-26T06:58:38.219Z,0.90
2023-03-26T07:01:25.513Z,2.50
2023-03-26T07:04:13.425Z,1.90
2023-03-26T07:07:21.890Z,0.90
2023-03-26T07:10:10.356Z,2.40
2023-03-26T07:13:00.460Z,1.10
2023-03-26T07:15:55.668Z,0.90
2023-03-26T07:18:35.041Z,1.20
2023-03-26T07:21:05.877Z,2.40
2023-03-26T07:23:36.590Z,1.00
2023-03-26T07:26:37.128Z,1.30
2023-03-26T07:29:42.218Z,2.10
2023-03-26T07:32:43.733Z,1.20
2023-03-26T07:35:47.014Z,2.20
2023-03-26T07:38:53.066Z,1.00
2023-03-26T07:42:14.867Z,2.10
2023-03-26T07:45:34.071Z,0.90
2023-03-26T07:48:28.561Z,0.90
2023-03-26T07:51:18.936Z,1.00
2023-03-26T07:54:04.319Z,0.80
2023-03-26T07:56:59.148Z,4.00
2023-03-26T07:59:55.084Z,1.30
2023-03-26T08:03:22.337Z,1.80
2023-03-26T08:06:17.851Z,1.70
2023-03-26T08:09:17.867Z,1.80
2023-03-26T08:12:02.170Z,1.90
2023-03-26T08:14:34.026Z,2.10
2023-03-26T08:17:38.968Z,2.10
2023-03-26T08:20:36.901Z,1.50
2023-03-26T08:23:28.162Z,2.50
2023-03-26T08:26:06.329Z,1.20
2023-03-26T08:29:11.923Z,1.20
2023-03-26T08:31:42.020Z,2.20
2023-03-26T08:34:11.734Z,1.80
2023-03-26T08:36:40.496Z,2.20
2023-03-26T08:39:09.366Z,3.20
2023-03-26T08:42:05.451Z,3.50
2023-03-26T08:44:34.569Z,5.20
2023-03-26T08:47:19.742Z,4.00
2023-03-26T08:50:19.430Z,3.10
2023-03-26T08:53:22.255Z,2.30
2023-03-26T08:55:57.911Z,3.00
2023-03-26T08:58:50.910Z,3.00
2023-03-26T09:01:25.954Z,4.10
2023-03-26T09:04:19.898Z,2.60
2023-03-26T09:07:22.046Z,3.40
2023-03-26T09:10:29.840Z,1.50
2023-03-26T09:13:41.304Z,3.20
2023-03-26T09:16:31.848Z,2.00
2023-03-26T09:19:14.362Z,2.80
2023-03-26T09:21:58.561Z,5.70
2023-03-26T09:24:34.841Z,5.10
2023-03-26T09:27:34.574Z,3.90
2023-03-26T09:30:29.706Z,2.90
2023-03-26T09:33:28.216Z,4.10
2023-03-26T09:36:19.993Z,3.60
2023-03-26T09:39:19.722Z,3.40
2023-03-26T09:41:59.111Z,3.10
2023-03-26T09:45:01.606Z,3.50
2023-03-26T09:47:46.147Z,3.40
2023-03-26T09:50:27.622Z,3.60
2023-03-26T09:53:18.628Z,6.50
2023-03-26T09:56:09.040Z,7.00
2023-03-26T09:58:47.158Z,4.60
2023-03-26T10:04:21.058Z,6.40
2023-03-26T10:06:58.190Z,5.10
2023-03-26T10:09:41.151Z,4.50
2023-03-26T10:12:16.667Z,4.70
2023-03-26T10:14:49.348Z,5.30
2023-03-26T10:18:28.226Z,4.80
2023-03-26T10:21:02.169Z,5.80
2023-03-26T10:23:51.759Z,5.00
2023-03-26T10:26:39.108Z,8.80
2023-03-26T10:29:23.580Z,6.80
2023-03-26T10:32:16.333Z,5.90
2023-03-26T10:34:57.064Z,6.50
2023-03-26T10:37:35.985Z,6.30
2023-03-26T10:40:28.351Z,6.80
2023-03-26T10:43:19.926Z,5.10
2023-03-26T10:46:01.921Z,5.20
2023-03-26T10:48:54.900Z,4.90
2023-03-26T10:51:51.593Z,4.70
2023-03-26T10:54:47.401Z,4.70
2023-03-26T10:57:56.350Z,4.30
2023-03-26T11:00:29.425Z,3.80
2023-03-26T11:03:36.272Z,4.70
2023-03-26T11:06:17.221Z,4.40
2023-03-26T11:09:27.349Z,4.30
2023-03-26T11:12:26.584Z,3.40
2023-03-26T11:15:18.458Z,3.10
2023-03-26T11:18:11.294Z,3.40
2023-03-26T11:20:51.398Z,3.10
2023-03-26T11:23:32.042Z,4.00
2023-03-26T11:26:03.852Z,3.70
2023-03-26T11:29:03.547Z,3.10
2023-03-26T11:31:50.550Z,3.70
2023-03-26T11:36:55.224Z,2.50
2023-03-26T11:39:26.086Z,2.30
2023-03-26T11:42:07.752Z,4.60
2023-03-26T11:45:06.109Z,2.30
2023-03-26T11:47:44.730Z,1.60
2023-03-26T11:50:36.478Z,2.60
2023-03-26T11:53:13.129Z,2.70
2023-03-26T11:55:44.860Z,1.60
2023-03-26T11:58:28.060Z,2.10
2023-03-26T12:00:57.024Z,2.00
2023-03-26T12:03:30.466Z,5.00
2023-03-26T12:06:00.215Z,2.30
2023-03-26T12:08:34.925Z,3.30
2023-03-26T12:11:09.099Z,1.80
2023-03-26T12:13:39.406Z,1.40
2023-03-26T12:16:16.847Z,2.10
2023-03-26T12:18:46.774Z,1.40
2023-03-26T12:21:18.317Z,1.20
2023-03-26T12:24:00.627Z,1.50
2023-03-26T12:26:45.170Z,2.40
2023-03-26T12:29:15.550Z,1.30
2023-03-26T12:31:49.863Z,1.70
2023-03-26T12:34:23.245Z,2.70
2023-03-26T12:36:53.696Z,1.60
2023-03-26T12:40:09.321Z,1.60
2023-03-26T12:44:46.779Z,0.70
2023-03-26T12:45:23.837Z,1.00
2023-03-26T12:47:58.926Z,1.40
2023-03-26T12:50:40.910Z,1.40
2023-03-26T12:53:27.790Z,2.60
2023-03-26T12:56:01.812Z,0.90
2023-03-26T12:58:38.401Z,1.90
2023-03-26T13:01:16.958Z,1.40
2023-03-26T13:04:14.847Z,1.50
2023-03-26T13:07:01.989Z,1.10
2023-03-26T13:10:11.461Z,2.20
2023-03-26T13:12:51.655Z,2.40
2023-03-26T13:15:25.281Z,1.10
2023-03-26T13:17:54.410Z,1.30
2023-03-26T13:20:47.283Z,1.60
2023-03-26T13:23:26.955Z,0.90
2023-03-26T13:26:15.279Z,1.10
2023-03-26T13:29:02.770Z,1.10
2023-03-26T13:31:36.438Z,1.50
2023-03-26T13:34:23.520Z,1.90
2023-03-26T13:37:23.581Z,2.80
2023-03-26T13:40:02.307Z,1.60
2023-03-26T13:42:42.057Z,1.70
2023-03-26T13:45:43.565Z,1.70
2023-03-26T13:48:18.600Z,3.10
2023-03-26T13:51:10.023Z,1.50
2023-03-26T13:54:06.134Z,1.10
2023-03-26T13:56:38.312Z,1.50
2023-03-26T13:59:13.007Z,0.80
2023-03-26T14:01:51.149Z,1.00
2023-03-26T14:04:32.490Z,0.70
2023-03-26T14:07:05.186Z,0.70
2023-03-26T14:09:41.093Z,0.60
2023-03-26T14:12:30.896Z,0.70
2023-03-26T14:15:02.449Z,1.80
2023-03-26T14:17:51.500Z,0.80
2023-03-26T14:20:35.058Z,4.50
2023-03-26T14:23:06.428Z,1.00
2023-03-26T14:26:09.730Z,1.20
2023-03-26T14:29:01.895Z,1.50
2023-03-26T14:31:39.762Z,1.60
2023-03-26T14:34:33.350Z,1.10
2023-03-26T14:37:10.772Z,0.70
2023-03-26T14:39:49.411Z,1.10
2023-03-26T14:42:22.032Z,1.50
2023-03-26T14:45:15.590Z,1.30
2023-03-26T14:48:21.904Z,1.30
2023-03-26T14:50:54.831Z,1.20
2023-03-26T14:53:40.523Z,1.70
2023-03-26T14:56:35.802Z,1.10
2023-03-26T14:59:41.893Z,1.50
2023-03-26T15:02:23.260Z,0.90
2023-03-26T15:04:54.816Z,0.80
2023-03-26T15:07:35.395Z,1.50
2023-03-26T15:10:17.051Z,0.60
2023-03-26T15:12:59.091Z,1.20
2023-03-26T15:15:33.725Z,0.80
2023-03-26T15:18:14.359Z,1.20
2023-03-26T15:21:04.941Z,0.90
2023-03-26T15:24:07.879Z,1.20
2023-03-26T15:27:14.786Z,1.30
2023-03-26T15:30:07.074Z,0.80
2023-03-26T15:33:05.478Z,1.40
2023-03-26T15:35:42.350Z,2.00
2023-03-26T15:38:53.014Z,1.50
2023-03-26T15:41:44.768Z,0.80
2023-03-26T15:44:29.228Z,0.70
2023-03-26T15:47:16.862Z,1.90
2023-03-26T15:49:52.960Z,0.60
2023-03-26T15:52:26.499Z,0.80
2023-03-26T15:55:11.272Z,0.70
2023-03-26T15:57:44.137Z,0.80
2023-03-26T16:00:15.601Z,1.40
2023-03-26T16:02:53.957Z,2.50
2023-03-26T16:05:50.326Z,1.20
2023-03-26T16:08:47.289Z,1.00
2023-03-26T16:11:16.685Z,1.10
2023-03-26T16:13:54.987Z,1.30
2023-03-26T16:16:28.389Z,1.80
2023-03-26T16:18:59.629Z,2.70
2023-03-26T16:21:32.792Z,2.00
2023-03-26T16:24:08.329Z,2.50
2023-03-26T16:26:48.908Z,2.50
2023-03-26T16:29:19.473Z,2.40
2023-03-26T16:32:10.084Z,2.90
2023-03-26T16:35:02.259Z,3.10
2023-03-26T16:37:37.849Z,3.90
2023-03-26T16:40:18.861Z,2.60
2023-03-26T16:43:39.262Z,3.40
2023-03-26T16:46:16.822Z,2.30
2023-03-26T16:49:24.052Z,2.10
2023-03-26T16:51:55.609Z,2.00
2023-03-26T16:54:24.275Z,2.40
2023-03-26T16:57:12.608Z,2.80
2023-03-26T17:00:13.870Z,3.20
2023-03-26T17:03:14.560Z,3.20
2023-03-26T17:05:46.151Z,3.60
2023-03-26T17:08:36.962Z,4.80
2023-03-26T17:11:21.133Z,3.90
2023-03-26T17:14:35.867Z,3.40
2023-03-26T17:17:27.380Z,2.30
2023-03-26T17:20:20.381Z,2.30
2023-03-26T17:22:56.495Z,1.90
2023-03-26T17:25:58.171Z,2.90
2023-03-26T17:28:55.946Z,1.60
2023-03-26T17:31:36.488Z,1.50
2023-03-26T17:34:39.244Z,1.30
2023-03-26T17:37:19.148Z,1.60
2023-03-26T17:40:14.056Z,3.30
2023-03-26T17:43:01.922Z,1.90
2023-03-26T17:45:33.663Z,2.30
2023-03-26T17:48:06.041Z,2.60
2023-03-26T17:50:58.372Z,2.20
2023-03-26T17:53:31.794Z,2.60
2023-03-26T17:56:03.916Z,4.80
2023-03-26T17:58:37.826Z,1.80
2023-03-26T18:01:12.477Z,2.00
2023-03-26T18:03:44.805Z,2.70
2023-03-26T18:06:14.740Z,1.80
2023-03-26T18:08:55.894Z,4.20
2023-03-26T18:11:50.992Z,2.60
2023-03-26T18:14:27.934Z,1.40
2023-03-26T18:16:57.802Z,1.30
2023-03-26T18:19:27.161Z,1.20
2023-03-26T18:21:59.809Z,2.40
2023-03-26T18:24:33.368Z,2.10
2023-03-26T18:27:03.246Z,2.40
2023-03-26T18:29:33.222Z,2.70
2023-03-26T18:32:09.579Z,2.80
2023-03-26T18:34:39.966Z,3.30
2023-03-26T18:37:11.502Z,3.60
2023-03-26T18:39:41.170Z,4.20
2023-03-26T18:42:22.953Z,3.60
2023-03-26T18:44:53.254Z,5.90
2023-03-26T18:47:22.144Z,4.60
2023-03-26T18:49:52.372Z,2.80
2023-03-26T18:52:21.570Z,3.70
2023-03-26T18:54:52.118Z,3.00
2023-03-26T18:57:23.030Z,2.40
2023-03-26T18:59:56.289Z,3.30
2023-03-26T19:02:24.828Z,3.20
2023-03-26T19:04:54.538Z,3.10
2023-03-26T19:09:28.194Z,3.80
2023-03-26T19:12:18.624Z,3.40
2023-03-26T19:14:55.357Z,3.30
2023-03-26T19:17:25.494Z,2.40
2023-03-26T19:19:54.993Z,2.30
2023-03-26T19:22:25.940Z,2.60
2023-03-26T19:24:57.873Z,1.90
2023-03-26T19:27:26.169Z,2.50
2023-03-26T19:29:57.759Z,2.60
2023-03-26T19:32:34.755Z,3.30
2023-03-26T19:35:04.675Z,2.70
2023-03-26T19:37:33.936Z,2.60
2023-03-26T19:40:22.796Z,2.40
2023-03-26T19:42:52.301Z,2.20
2023-03-26T19:45:23.186Z,2.60
2023-03-26T19:48:00.423Z,2.10
2023-03-26T19:50:33.703Z,2.40
2023-03-26T19:53:22.263Z,2.20
2023-03-26T19:55:55.801Z,3.10
2023-03-26T19:58:26.559Z,3.20
2023-03-26T20:00:56.515Z,2.50
2023-03-26T20:03:43.078Z,2.80
2023-03-26T20:06:12.554Z,3.10
2023-03-26T20:08:47.289Z,2.80
2023-03-26T20:11:39.332Z,2.70
2023-03-26T20:14:21.688Z,2.90
2023-03-26T20:16:50.609Z,3.50
2023-03-26T20:19:19.396Z,5.10
2023-03-26T20:21:55.926Z,5.60
2023-03-26T20:24:32.432Z,3.10
2023-03-26T20:27:00.800Z,3.10
2023-03-26T20:29:29.649Z,3.60
2023-03-26T20:31:58.025Z,2.90
2023-03-26T20:34:26.419Z,2.80
2023-03-26T20:36:56.139Z,3.00
2023-03-26T20:39:25.427Z,2.20
2023-03-26T20:41:55.013Z,2.40
2023-03-26T20:44:23.847Z,3.20
2023-03-26T20:46:52.689Z,2.80
2023-03-26T20:49:22.392Z,2.50
2023-03-26T20:51:50.965Z,2.10
2023-03-26T20:54:21.828Z,3.10
2023-03-26T20:56:51.196Z,2.50
2023-03-26T20:59:22.336Z,3.30
2023-03-26T21:01:51.513Z,2.60
2023-03-26T21:04:20.090Z,2.70
2023-03-26T21:06:48.894Z,4.20
2023-03-26T21:09:19.157Z,3.20
2023-03-26T21:12:08.382Z,5.10
2023-03-26T21:14:43.643Z,3.40
2023-03-26T21:17:16.284Z,3.20
2023-03-26T21:19:45.990Z,2.60
2023-03-26T21:22:46.471Z,3.40
2023-03-26T21:25:32.255Z,2.20
2023-03-26T21:28:41.905Z,2.20
2023-03-26T21:31:19.777Z,1.60
2023-03-26T21:33:49.519Z,1.50
2023-03-26T21:36:18.691Z,2.10
2023-03-26T21:38:47.573Z,1.60
2023-03-26T21:41:41.454Z,1.70
2023-03-26T21:44:10.236Z,1.00
2023-03-26T21:46:41.708Z,1.40
2023-03-26T21:49:10.592Z,1.70
2023-03-26T21:51:39.178Z,2.30
2023-03-26T21:54:21.604Z,1.90
2023-03-26T21:57:39.268Z,1.80
2023-03-26T22:00:15.710Z,1.50
2023-03-26T22:02:47.030Z,1.40
2023-03-26T22:05:17.730Z,1.50
2023-03-26T22:08:00.204Z,1.90
2023-03-26T22:10:29.621Z,1.40
2023-03-26T22:13:01.556Z,2.20
2023-03-26T22:15:30.943Z,1.70
2023-03-26T22:18:01.205Z,2.00
2023-03-26T22:20:34.287Z,1.80
2023-03-26T22:23:03.425Z,1.70
2023-03-26T22:25:33.078Z,1.90
2023-03-26T22:28:04.499Z,1.30
2023-03-26T22:30:33.408Z,2.20
2023-03-26T22:33:01.920Z,1.40
2023-03-26T22:35:30.446Z,1.80
2023-03-26T22:38:00.885Z,1.90
2023-03-26T22:40:29.875Z,2.50
2023-03-26T22:42:58.513Z,4.20
2023-03-26T22:45:30.258Z,1.60
2023-03-26T22:48:03.439Z,2.50
2023-03-26T22:50:33.076Z,1.80
2023-03-26T22:53:02.616Z,2.40
2023-03-26T22:55:32.526Z,1.40
2023-03-26T22:58:07.105Z,1.50
2023-03-26T23:00:40.149Z,1.60
2023-03-26T23:03:09.086Z,1.50
2023-03-26T23:05:38.214Z,1.50
2023-03-26T23:08:08.043Z,1.40
2023-03-26T23:10:37.024Z,1.50
2023-03-26T23:13:05.880Z,2.00
2023-03-26T23:15:35.192Z,1.60
2023-03-26T23:18:03.698Z,1.80
2023-03-26T23:20:39.412Z,1.80
2023-03-26T23:23:07.890Z,1.50
2023-03-26T23:25:40.938Z,2.20
2023-03-26T23:28:10.436Z,2.20
2023-03-26T23:30:38.970Z,1.80
2023-03-26T23:33:09.190Z,1.90
2023-03-26T23:35:37.874Z,1.40
2023-03-26T23:38:08.418Z,2.00
2023-03-26T23:40:37.675Z,1.80
2023-03-26T23:43:07.071Z,3.20
2023-03-26T23:45:35.606Z,3.10
2023-03-26T23:48:05.153Z,3.60
2023-03-26T23:50:40.092Z,3.30
2023-03-26T23:53:08.682Z,2.70
2023-03-26T23:55:38.148Z,2.50
2023-03-26T23:58:07.114Z,4.20
